createdAt,value
2022-11-14T00:02:13.773Z,90.05
2022-11-14T00:05:00.237Z,90.34
2022-11-14T00:07:47.434Z,89.80
2022-11-14T00:10:33.825Z,90.49
2022-11-14T00:13:20.662Z,90.07
2022-11-14T00:16:07.240Z,89.93
2022-11-14T00:18:53.644Z,90.52
2022-11-14T00:21:40.290Z,90.10
2022-11-14T00:24:26.430Z,90.06
2022-11-14T00:27:13.096Z,89.90
2022-11-14T00:29:59.675Z,90.29
2022-11-14T00:32:46.314Z,90.29
2022-11-14T00:35:32.821Z,90.06
2022-11-14T00:38:19.026Z,90.43
2022-11-14T00:41:05.559Z,90.44
2022-11-14T00:43:51.918Z,90.48
2022-11-14T00:46:38.673Z,91.11
2022-11-14T00:49:24.812Z,90.94
2022-11-14T00:52:11.099Z,90.38
2022-11-14T00:54:57.707Z,90.68
2022-11-14T00:57:44.398Z,90.81
2022-11-14T01:00:31.179Z,90.90
2022-11-14T01:03:18.116Z,90.94
2022-11-14T01:06:07.777Z,90.85
2022-11-14T01:08:54.377Z,90.47
2022-11-14T01:11:40.364Z,91.10
2022-11-14T01:14:26.368Z,90.95
2022-11-14T01:17:12.568Z,91.01
2022-11-14T01:19:59.071Z,91.38
2022-11-14T01:22:45.228Z,91.67
2022-11-14T01:25:33.792Z,91.43
2022-11-14T01:28:20.150Z,91.19
2022-11-14T01:31:09.858Z,91.50
2022-11-14T01:33:56.295Z,91.35
2022-11-14T01:36:42.815Z,91.34
2022-11-14T01:39:28.894Z,91.67
2022-11-14T01:42:17.465Z,91.79
2022-11-14T01:45:48.895Z,91.66
2022-11-14T01:48:49.304Z,91.47
2022-11-14T01:51:41.838Z,91.43
2022-11-14T01:54:32.891Z,91.41
2022-11-14T01:57:25.390Z,91.47
2022-11-14T02:00:13.132Z,91.55
2022-11-14T02:03:00.864Z,91.83
2022-11-14T02:05:48.832Z,91.71
2022-11-14T02:08:36.741Z,91.55
2022-11-14T02:11:23.381Z,91.33
2022-11-14T02:14:09.834Z,91.17
2022-11-14T02:17:22.702Z,91.69
2022-11-14T02:20:11.845Z,91.89
2022-11-14T02:22:58.403Z,91.93
2022-11-14T02:25:44.652Z,91.69
2022-11-14T02:28:31.442Z,91.64
2022-11-14T02:31:17.747Z,91.63
2022-11-14T02:34:03.966Z,91.80
2022-11-14T02:36:50.697Z,91.94
2022-11-14T02:39:37.069Z,91.79
2022-11-14T02:42:23.610Z,91.80
2022-11-14T02:45:12.266Z,91.79
2022-11-14T02:47:58.667Z,91.47
2022-11-14T02:50:47.921Z,91.64
2022-11-14T02:53:34.660Z,91.97
2022-11-14T02:56:21.013Z,92.04
2022-11-14T02:59:06.928Z,91.92
2022-11-14T03:01:53.202Z,92.28
2022-11-14T03:04:39.704Z,92.05
2022-11-14T03:07:26.302Z,91.91
2022-11-14T03:10:14.019Z,91.71
2022-11-14T03:13:00.719Z,91.86
2022-11-14T03:15:47.154Z,91.68
2022-11-14T03:18:33.701Z,91.83
2022-11-14T03:21:21.707Z,91.72
2022-11-14T03:24:08.263Z,91.60
2022-11-14T03:26:54.715Z,91.41
2022-11-14T03:29:40.986Z,91.24
2022-11-14T03:32:27.545Z,91.65
2022-11-14T03:35:13.764Z,91.67
2022-11-14T03:37:59.843Z,91.72
2022-11-14T03:40:46.047Z,91.74
2022-11-14T03:43:34.173Z,91.55
2022-11-14T03:46:20.630Z,91.25
2022-11-14T03:49:07.268Z,91.09
2022-11-14T03:51:53.802Z,91.39
2022-11-14T03:54:39.822Z,91.75
2022-11-14T03:57:26.028Z,91.79
2022-11-14T04:00:13.210Z,91.74
2022-11-14T04:02:59.562Z,91.58
2022-11-14T04:05:46.356Z,91.37
2022-11-14T04:08:33.315Z,91.19
2022-11-14T04:11:20.096Z,91.40
2022-11-14T04:14:06.866Z,91.67
2022-11-14T04:16:53.228Z,91.54
2022-11-14T04:19:39.488Z,91.82
2022-11-14T04:22:26.057Z,91.60
2022-11-14T04:25:12.499Z,91.82
2022-11-14T04:27:58.798Z,91.30
2022-11-14T04:30:45.450Z,91.37
2022-11-14T04:33:31.875Z,91.47
2022-11-14T04:36:18.032Z,91.57
2022-11-14T04:39:04.823Z,91.42
2022-11-14T04:41:51.142Z,91.81
2022-11-14T04:44:37.441Z,91.90
2022-11-14T04:47:24.010Z,91.64
2022-11-14T04:50:10.544Z,91.40
2022-11-14T04:52:56.774Z,91.34
2022-11-14T04:55:44.887Z,91.31
2022-11-14T04:58:31.322Z,91.36
2022-11-14T05:01:18.050Z,91.16
2022-11-14T05:04:04.444Z,91.32
2022-11-14T05:06:50.722Z,91.53
2022-11-14T05:09:37.058Z,91.53
2022-11-14T05:12:23.470Z,91.58
2022-11-14T05:15:10.011Z,91.58
2022-11-14T05:17:58.449Z,91.31
2022-11-14T05:20:44.846Z,91.19
2022-11-14T05:23:31.131Z,91.21
2022-11-14T05:26:18.524Z,91.39
2022-11-14T05:29:04.603Z,91.43
2022-11-14T05:31:50.908Z,91.72
2022-11-14T05:34:37.362Z,91.71
2022-11-14T05:37:23.770Z,91.38
2022-11-14T05:40:10.495Z,91.07
2022-11-14T05:42:56.701Z,91.25
2022-11-14T05:45:43.371Z,91.34
2022-11-14T05:48:30.758Z,91.12
2022-11-14T05:51:17.069Z,91.12
2022-11-14T05:54:03.216Z,91.09
2022-11-14T05:56:49.839Z,91.22
2022-11-14T05:59:36.153Z,91.15
2022-11-14T06:02:22.681Z,91.18
2022-11-14T06:05:09.548Z,91.23
2022-11-14T06:07:59.383Z,91.36
2022-11-14T06:10:45.976Z,90.94
2022-11-14T06:13:32.832Z,90.94
2022-11-14T06:16:19.863Z,90.73
2022-11-14T06:19:07.146Z,90.43
2022-11-14T06:21:53.394Z,89.83
2022-11-14T06:24:39.563Z,89.90
2022-11-14T06:27:25.679Z,89.94
2022-11-14T06:30:12.621Z,89.76
2022-11-14T06:32:59.360Z,89.59
2022-11-14T06:35:45.797Z,89.86
2022-11-14T06:38:33.518Z,90.11
2022-11-14T06:41:21.786Z,89.97
2022-11-14T06:44:08.836Z,90.02
2022-11-14T06:46:56.400Z,89.71
2022-11-14T06:49:42.750Z,89.88
2022-11-14T06:52:29.217Z,89.62
2022-11-14T06:55:17.689Z,89.69
2022-11-14T06:58:06.060Z,90.13
2022-11-14T07:00:52.342Z,89.82
2022-11-14T07:03:38.617Z,89.62
2022-11-14T07:06:26.882Z,89.51
2022-11-14T07:09:13.269Z,89.67
2022-11-14T07:11:59.607Z,89.51
2022-11-14T07:14:46.238Z,89.76
2022-11-14T07:17:35.772Z,89.58
2022-11-14T07:20:22.157Z,89.32
2022-11-14T07:23:08.806Z,89.43
2022-11-14T07:25:55.203Z,89.08
2022-11-14T07:28:45.932Z,88.86
2022-11-14T07:31:34.664Z,89.02
2022-11-14T07:34:20.772Z,89.00
2022-11-14T07:37:07.224Z,88.91
2022-11-14T07:39:53.806Z,88.56
2022-11-14T07:42:40.393Z,88.73
2022-11-14T07:45:28.147Z,88.74
2022-11-14T07:48:17.499Z,88.59
2022-11-14T07:51:07.097Z,88.70
2022-11-14T07:53:53.713Z,88.80
2022-11-14T07:56:40.074Z,89.29
2022-11-14T07:59:26.262Z,89.27
2022-11-14T08:02:15.863Z,88.91
2022-11-14T08:05:02.204Z,89.04
2022-11-14T08:07:52.530Z,89.20
2022-11-14T08:10:38.860Z,88.80
2022-11-14T08:13:32.204Z,88.88
2022-11-14T08:16:19.487Z,88.43
2022-11-14T08:19:06.320Z,87.90
2022-11-14T08:21:52.456Z,88.07
2022-11-14T08:24:38.941Z,87.86
2022-11-14T08:27:25.811Z,88.04
2022-11-14T08:30:12.583Z,88.03
2022-11-14T08:33:03.345Z,87.71
2022-11-14T08:35:49.451Z,87.70
2022-11-14T08:38:35.677Z,87.90
2022-11-14T08:41:21.886Z,87.94
2022-11-14T08:44:08.526Z,87.96
2022-11-14T08:46:54.707Z,87.89
2022-11-14T08:49:40.982Z,87.72
2022-11-14T08:52:27.553Z,87.58
2022-11-14T08:55:13.703Z,87.86
2022-11-14T08:57:59.821Z,87.79
2022-11-14T09:00:46.929Z,87.84
2022-11-14T09:03:34.524Z,87.62
2022-11-14T09:06:21.090Z,87.80
2022-11-14T09:09:07.346Z,87.54
2022-11-14T09:11:53.442Z,87.55
2022-11-14T09:14:39.657Z,87.28
2022-11-14T09:17:26.199Z,87.17
2022-11-14T09:20:12.515Z,87.06
2022-11-14T09:23:02.999Z,86.98
2022-11-14T09:25:49.463Z,87.09
2022-11-14T09:28:36.781Z,87.09
2022-11-14T09:31:22.998Z,87.04
2022-11-14T09:34:09.388Z,86.63
2022-11-14T09:36:55.800Z,86.87
2022-11-14T09:39:42.537Z,86.87
2022-11-14T09:42:38.147Z,87.05
2022-11-14T09:45:25.451Z,87.04
2022-11-14T09:48:18.558Z,87.24
2022-11-14T09:51:10.536Z,86.76
2022-11-14T09:54:22.401Z,86.73
2022-11-14T09:57:15.424Z,86.82
2022-11-14T10:00:02.090Z,86.96
2022-11-14T10:03:09.065Z,86.88
2022-11-14T10:06:22.686Z,86.82
2022-11-14T10:09:34.027Z,86.83
2022-11-14T10:12:31.104Z,86.38
2022-11-14T10:15:37.353Z,86.38
2022-11-14T10:18:39.002Z,86.21
2022-11-14T10:21:40.599Z,86.06
2022-11-14T10:24:59.289Z,85.67
2022-11-14T10:28:09.633Z,86.19
2022-11-14T10:31:17.461Z,86.02
2022-11-14T10:34:14.138Z,86.08
2022-11-14T10:37:18.139Z,85.89
2022-11-14T10:40:22.224Z,86.15
2022-11-14T10:43:21.736Z,86.32
2022-11-14T10:46:15.167Z,86.35
2022-11-14T10:49:01.671Z,86.42
2022-11-14T10:51:54.326Z,86.21
2022-11-14T10:55:03.254Z,86.32
2022-11-14T10:57:49.623Z,86.44
2022-11-14T11:00:36.151Z,86.33
2022-11-14T11:03:41.295Z,86.71
2022-11-14T11:06:29.376Z,86.53
2022-11-14T11:09:42.328Z,86.69
2022-11-14T11:12:34.923Z,86.96
2022-11-14T11:15:22.762Z,86.88
2022-11-14T11:18:48.508Z,87.06
2022-11-14T11:21:49.449Z,87.17
2022-11-14T11:24:37.932Z,87.58
2022-11-14T11:27:30.421Z,87.48
2022-11-14T11:30:23.357Z,87.72
2022-11-14T11:33:16.878Z,87.68
2022-11-14T11:36:15.140Z,87.81
2022-11-14T11:39:01.887Z,87.38
2022-11-14T11:45:02.571Z,87.27
2022-11-14T11:47:57.770Z,87.20
2022-11-14T11:50:44.274Z,87.31
2022-11-14T11:53:39.250Z,87.30
2022-11-14T11:56:30.535Z,87.26
2022-11-14T11:59:36.596Z,87.36
2022-11-14T12:02:27.243Z,87.53
2022-11-14T12:05:16.437Z,87.31
2022-11-14T12:08:37.545Z,87.28
2022-11-14T12:11:27.417Z,87.63
2022-11-14T12:14:55.762Z,87.61
2022-11-14T12:18:32.184Z,87.71
2022-11-14T12:21:24.811Z,87.84
2022-11-14T12:24:23.765Z,87.69
2022-11-14T12:27:25.564Z,87.84
2022-11-14T12:30:23.621Z,87.57
2022-11-14T12:33:27.037Z,87.83
2022-11-14T12:36:13.946Z,87.61
2022-11-14T12:39:01.942Z,87.44
2022-11-14T12:41:48.316Z,87.53
2022-11-14T12:44:38.715Z,87.50
2022-11-14T12:47:27.489Z,87.49
2022-11-14T12:50:39.429Z,87.37
2022-11-14T12:53:38.217Z,87.78
2022-11-14T12:56:33.286Z,87.69
2022-11-14T12:59:35.421Z,87.69
2022-11-14T13:02:49.263Z,87.67
2022-11-14T13:05:52.051Z,87.68
2022-11-14T13:09:16.065Z,87.46
2022-11-14T13:12:46.266Z,87.30
2022-11-14T13:15:55.120Z,86.86
2022-11-14T13:19:11.260Z,87.08
2022-11-14T13:22:11.960Z,86.90
2022-11-14T13:24:58.299Z,86.76
2022-11-14T13:28:06.505Z,86.75
2022-11-14T13:31:16.101Z,86.49
2022-11-14T13:34:29.379Z,86.49
2022-11-14T13:37:21.993Z,86.38
2022-11-14T13:40:14.237Z,86.41
2022-11-14T13:43:19.997Z,86.23
2022-11-14T13:46:38.728Z,85.95
2022-11-14T13:49:31.114Z,85.50
2022-11-14T13:52:17.312Z,85.66
2022-11-14T13:55:04.622Z,85.65
2022-11-14T13:58:12.679Z,85.49
2022-11-14T14:01:01.797Z,85.71
2022-11-14T14:03:56.738Z,85.45
2022-11-14T14:07:21.134Z,85.44
2022-11-14T14:10:24.472Z,85.39
2022-11-14T14:13:25.900Z,85.46
2022-11-14T14:16:34.001Z,85.50
2022-11-14T14:19:29.680Z,85.15
2022-11-14T14:22:41.385Z,84.95
2022-11-14T14:25:37.052Z,85.30
2022-11-14T14:28:56.571Z,85.23
2022-11-14T14:31:43.998Z,85.28
2022-11-14T14:34:31.819Z,85.21
2022-11-14T14:37:19.710Z,85.29
2022-11-14T14:40:08.834Z,85.56
2022-11-14T14:42:58.853Z,85.56
2022-11-14T14:45:51.661Z,85.12
2022-11-14T14:48:42.214Z,85.17
2022-11-14T14:51:34.140Z,84.95
2022-11-14T14:54:29.919Z,85.06
2022-11-14T14:57:21.304Z,85.24
2022-11-14T15:00:23.374Z,85.06
2022-11-14T15:03:10.741Z,85.27
2022-11-14T15:05:59.459Z,84.88
2022-11-14T15:08:46.465Z,84.76
2022-11-14T15:11:33.813Z,84.95
2022-11-14T15:14:26.682Z,85.00
2022-11-14T15:17:13.570Z,85.02
2022-11-14T15:20:00.280Z,85.11
2022-11-14T15:23:03.866Z,84.96
2022-11-14T15:26:02.762Z,85.02
2022-11-14T15:28:48.923Z,84.88
2022-11-14T15:31:37.092Z,85.02
2022-11-14T15:34:25.457Z,84.90
2022-11-14T15:37:16.559Z,85.14
2022-11-14T15:40:18.958Z,84.91
2022-11-14T15:43:50.587Z,84.81
2022-11-14T15:46:47.581Z,85.03
2022-11-14T15:49:35.799Z,85.01
2022-11-14T15:52:27.155Z,84.93
2022-11-14T15:55:17.606Z,85.27
2022-11-14T15:58:27.237Z,85.28
2022-11-14T16:01:18.937Z,85.22
2022-11-14T16:04:05.568Z,85.12
2022-11-14T16:06:52.463Z,85.21
2022-11-14T16:09:38.853Z,85.18
2022-11-14T16:12:25.130Z,85.28
2022-11-14T16:15:12.095Z,85.16
2022-11-14T16:17:58.940Z,85.21
2022-11-14T16:20:45.369Z,85.03
2022-11-14T16:23:32.150Z,85.01
2022-11-14T16:26:18.905Z,85.19
2022-11-14T16:29:05.148Z,85.21
2022-11-14T16:31:51.892Z,85.30
2022-11-14T16:34:38.452Z,85.49
2022-11-14T16:37:25.570Z,85.53
2022-11-14T16:40:17.149Z,85.21
2022-11-14T16:43:03.736Z,85.01
2022-11-14T16:45:50.537Z,84.79
2022-11-14T16:48:36.653Z,84.97
2022-11-14T16:51:46.668Z,85.07
2022-11-14T16:54:29.434Z,85.12
2022-11-14T16:57:16.044Z,85.21
2022-11-14T17:00:02.373Z,85.08
2022-11-14T17:02:50.085Z,85.17
2022-11-14T17:05:44.409Z,84.80
2022-11-14T17:08:31.156Z,85.01
2022-11-14T17:11:19.029Z,85.03
2022-11-14T17:14:06.028Z,85.39
2022-11-14T17:16:52.515Z,85.12
2022-11-14T17:19:45.758Z,85.12
2022-11-14T17:22:32.694Z,85.06
2022-11-14T17:25:19.150Z,85.26
2022-11-14T17:28:06.274Z,85.33
2022-11-14T17:30:52.493Z,85.44
2022-11-14T17:33:38.935Z,85.26
2022-11-14T17:36:28.178Z,84.85
2022-11-14T17:39:15.244Z,84.97
2022-11-14T17:42:01.518Z,85.16
2022-11-14T17:44:48.847Z,85.41
2022-11-14T17:47:36.183Z,85.51
2022-11-14T17:50:23.404Z,85.23
2022-11-14T17:53:09.998Z,85.26
2022-11-14T17:55:59.559Z,85.24
2022-11-14T17:58:46.684Z,85.26
2022-11-14T18:01:33.050Z,85.47
2022-11-14T18:04:19.795Z,85.76
2022-11-14T18:07:06.506Z,85.86
2022-11-14T18:09:52.761Z,85.97
2022-11-14T18:12:39.231Z,85.36
2022-11-14T18:15:28.122Z,85.34
2022-11-14T18:18:14.698Z,85.26
2022-11-14T18:21:13.720Z,85.11
2022-11-14T18:24:00.300Z,85.67
2022-11-14T18:26:46.966Z,85.78
2022-11-14T18:29:33.399Z,85.82
2022-11-14T18:32:20.251Z,85.73
2022-11-14T18:35:06.803Z,85.49
2022-11-14T18:37:53.635Z,85.57
2022-11-14T18:40:44.234Z,85.63
2022-11-14T18:43:32.852Z,85.69
2022-11-14T18:46:24.624Z,85.85
2022-11-14T18:49:11.361Z,85.75
2022-11-14T18:51:57.700Z,85.56
2022-11-14T18:54:44.192Z,85.44
2022-11-14T18:57:30.708Z,85.53
2022-11-14T19:00:17.177Z,85.76
2022-11-14T19:08:26.980Z,85.97
2022-11-14T19:11:34.353Z,86.02
2022-11-14T19:14:22.086Z,85.91
2022-11-14T19:17:08.912Z,85.82
2022-11-14T19:19:55.813Z,85.98
2022-11-14T19:22:42.092Z,85.92
2022-11-14T19:25:28.513Z,86.26
2022-11-14T19:28:15.171Z,86.34
2022-11-14T19:31:05.807Z,86.32
2022-11-14T19:33:52.154Z,86.27
2022-11-14T19:36:58.912Z,86.06
2022-11-14T19:39:44.966Z,85.94
2022-11-14T19:42:31.199Z,85.97
2022-11-14T19:45:17.841Z,86.33
2022-11-14T19:48:05.499Z,86.51
2022-11-14T19:51:02.518Z,86.43
2022-11-14T19:53:49.524Z,86.57
2022-11-14T19:56:36.290Z,86.65
2022-11-14T19:59:24.663Z,86.27
2022-11-14T20:02:14.533Z,86.65
2022-11-14T20:05:00.866Z,86.61
2022-11-14T20:07:47.101Z,86.57
2022-11-14T20:10:47.506Z,86.80
2022-11-14T20:13:40.187Z,86.89
2022-11-14T20:16:29.562Z,86.93
2022-11-14T20:19:16.745Z,86.86
2022-11-14T20:22:06.475Z,87.07
2022-11-14T20:24:53.128Z,87.18
2022-11-14T20:27:39.695Z,86.98
2022-11-14T20:30:25.860Z,87.08
2022-11-14T20:33:12.557Z,87.11
2022-11-14T20:36:04.677Z,86.91
2022-11-14T20:38:52.490Z,87.12
2022-11-14T20:41:39.125Z,86.86
2022-11-14T20:44:27.839Z,87.01
2022-11-14T20:47:14.615Z,87.22
2022-11-14T20:50:01.275Z,87.65
2022-11-14T20:52:48.334Z,87.54
2022-11-14T20:55:35.282Z,87.32
2022-11-14T20:58:22.560Z,87.12
2022-11-14T21:07:40.149Z,87.46
2022-11-14T21:10:45.309Z,87.40
2022-11-14T21:13:57.356Z,87.35
2022-11-14T21:16:43.609Z,87.12
2022-11-14T21:19:30.096Z,87.15
2022-11-14T21:22:16.967Z,87.61
2022-11-14T21:25:04.090Z,87.69
2022-11-14T21:27:50.465Z,87.81
2022-11-14T21:30:37.521Z,87.81
2022-11-14T21:33:25.844Z,87.68
2022-11-14T21:36:43.392Z,88.15
2022-11-14T21:39:19.976Z,87.63
2022-11-14T21:42:06.221Z,87.48
2022-11-14T21:44:52.744Z,87.68
2022-11-14T21:47:39.222Z,87.93
2022-11-14T21:50:25.932Z,87.78
2022-11-14T21:53:16.112Z,87.83
2022-11-14T21:56:12.606Z,87.96
2022-11-14T21:59:13.561Z,88.02
2022-11-14T22:02:18.875Z,87.73
2022-11-14T22:05:05.252Z,87.70
2022-11-14T22:07:51.692Z,87.71
2022-11-14T22:10:38.130Z,88.09
2022-11-14T22:13:24.287Z,88.33
2022-11-14T22:16:17.614Z,88.33
2022-11-14T22:19:05.482Z,88.21
2022-11-14T22:21:52.913Z,88.06
2022-11-14T22:24:39.269Z,87.76
2022-11-14T22:27:26.364Z,87.77
2022-11-14T22:44:30.297Z,87.73
2022-11-14T22:47:15.218Z,87.64
2022-11-14T22:50:00.299Z,87.82
2022-11-14T22:52:45.079Z,87.85
2022-11-14T22:55:29.986Z,87.79
2022-11-14T22:58:14.856Z,87.71
2022-11-14T23:01:00.915Z,87.72
2022-11-14T23:03:50.086Z,87.87
2022-11-14T23:06:35.338Z,87.69
2022-11-14T23:09:20.084Z,88.20
2022-11-14T23:12:05.415Z,88.10
2022-11-14T23:14:51.673Z,88.25
2022-11-14T23:17:36.494Z,88.27
2022-11-14T23:20:21.425Z,88.38
2022-11-14T23:23:06.263Z,88.19
2022-11-14T23:25:51.332Z,88.31
2022-11-14T23:28:36.527Z,87.96
2022-11-14T23:31:22.921Z,88.24
2022-11-14T23:34:07.968Z,87.93
2022-11-14T23:36:52.883Z,87.94
2022-11-14T23:39:39.492Z,88.31
2022-11-14T23:42:24.560Z,88.54
2022-11-14T23:45:09.445Z,88.56
2022-11-14T23:47:54.193Z,88.84
2022-11-14T23:50:39.137Z,88.64
2022-11-14T23:53:23.831Z,88.70
2022-11-14T23:56:12.459Z,88.46
2022-11-14T23:58:57.640Z,88.24
